sensor_id;sensor_type;location;lat;lon;timestamp;temperature;humidity
12130;DHT22;6128;59.340;18.040;2023-04-30T00:01:12;5.30;99.90
12130;DHT22;6128;59.340;18.040;2023-04-30T00:03:39;5.20;99.90
12130;DHT22;6128;59.340;18.040;2023-04-30T00:06:07;5.20;99.90
12130;DHT22;6128;59.340;18.040;2023-04-30T00:08:34;5.20;99.90
12130;DHT22;6128;59.340;18.040;2023-04-30T00:11:01;5.20;99.90
12130;DHT22;6128;59.340;18.040;2023-04-30T00:13:29;5.30;99.90
12130;DHT22;6128;59.340;18.040;2023-04-30T00:15:56;5.30;99.90
12130;DHT22;6128;59.340;18.040;2023-04-30T00:18:23;5.30;99.90
12130;DHT22;6128;59.340;18.040;2023-04-30T00:20:50;5.30;99.90
12130;DHT22;6128;59.340;18.040;2023-04-30T00:23:19;5.40;99.90
12130;DHT22;6128;59.340;18.040;2023-04-30T00:25:46;5.40;99.90
12130;DHT22;6128;59.340;18.040;2023-04-30T00:28:13;5.40;99.90
12130;DHT22;6128;59.340;18.040;2023-04-30T00:30:40;5.40;99.90
12130;DHT22;6128;59.340;18.040;2023-04-30T00:33:08;5.40;99.90
12130;DHT22;6128;59.340;18.040;2023-04-30T00:35:35;5.40;99.90
12130;DHT22;6128;59.340;18.040;2023-04-30T00:38:02;5.40;99.90
12130;DHT22;6128;59.340;18.040;2023-04-30T00:40:30;5.40;99.90
12130;DHT22;6128;59.340;18.040;2023-04-30T00:42:59;5.40;99.90
12130;DHT22;6128;59.340;18.040;2023-04-30T00:45:26;5.40;99.90
12130;DHT22;6128;59.340;18.040;2023-04-30T00:47:54;5.50;99.90
12130;DHT22;6128;59.340;18.040;2023-04-30T00:50:21;5.40;99.90
12130;DHT22;6128;59.340;18.040;2023-04-30T00:52:49;5.50;99.90
12130;DHT22;6128;59.340;18.040;2023-04-30T00:55:17;5.50;99.90
12130;DHT22;6128;59.340;18.040;2023-04-30T00:57:46;5.40;99.90
12130;DHT22;6128;59.340;18.040;2023-04-30T01:00:13;5.40;99.90
12130;DHT22;6128;59.340;18.040;2023-04-30T01:02:41;5.40;99.90
12130;DHT22;6128;59.340;18.040;2023-04-30T01:05:08;5.40;99.90
12130;DHT22;6128;59.340;18.040;2023-04-30T01:07:36;5.40;99.90
12130;DHT22;6128;59.340;18.040;2023-04-30T01:10:09;5.40;99.90
12130;DHT22;6128;59.340;18.040;2023-04-30T01:12:40;5.40;99.90
12130;DHT22;6128;59.340;18.040;2023-04-30T01:15:15;5.40;99.90
12130;DHT22;6128;59.340;18.040;2023-04-30T01:17:50;5.40;99.90
12130;DHT22;6128;59.340;18.040;2023-04-30T01:20:20;5.30;99.90
12130;DHT22;6128;59.340;18.040;2023-04-30T01:22:53;5.30;99.90
12130;DHT22;6128;59.340;18.040;2023-04-30T01:25:34;5.30;99.90
12130;DHT22;6128;59.340;18.040;2023-04-30T01:28:04;5.30;99.90
12130;DHT22;6128;59.340;18.040;2023-04-30T01:30:33;5.30;99.90
12130;DHT22;6128;59.340;18.040;2023-04-30T01:33:00;5.30;99.90
12130;DHT22;6128;59.340;18.040;2023-04-30T01:35:45;5.30;99.90
12130;DHT22;6128;59.340;18.040;2023-04-30T01:38:24;5.30;99.90
12130;DHT22;6128;59.340;18.040;2023-04-30T01:40:58;5.30;99.90
12130;DHT22;6128;59.340;18.040;2023-04-30T01:43:37;5.30;99.90
12130;DHT22;6128;59.340;18.040;2023-04-30T01:46:13;5.20;99.90
12130;DHT22;6128;59.340;18.040;2023-04-30T01:48:53;5.20;99.90
12130;DHT22;6128;59.340;18.040;2023-04-30T01:51:28;5.20;99.90
12130;DHT22;6128;59.340;18.040;2023-04-30T01:54:02;5.20;99.90
12130;DHT22;6128;59.340;18.040;2023-04-30T01:56:36;5.30;99.90
12130;DHT22;6128;59.340;18.040;2023-04-30T01:59:06;5.20;99.90
12130;DHT22;6128;59.340;18.040;2023-04-30T02:01:34;5.30;99.90
12130;DHT22;6128;59.340;18.040;2023-04-30T02:04:01;5.20;99.90
12130;DHT22;6128;59.340;18.040;2023-04-30T02:06:29;5.20;99.90
12130;DHT22;6128;59.340;18.040;2023-04-30T02:08:56;5.20;99.90
12130;DHT22;6128;59.340;18.040;2023-04-30T02:11:27;5.10;99.90
12130;DHT22;6128;59.340;18.040;2023-04-30T02:13:55;5.20;99.90
12130;DHT22;6128;59.340;18.040;2023-04-30T02:16:23;5.20;99.90
12130;DHT22;6128;59.340;18.040;2023-04-30T02:18:50;5.10;99.90
12130;DHT22;6128;59.340;18.040;2023-04-30T02:21:18;5.10;99.90
12130;DHT22;6128;59.340;18.040;2023-04-30T02:23:45;5.10;99.90
12130;DHT22;6128;59.340;18.040;2023-04-30T02:26:12;5.10;99.90
12130;DHT22;6128;59.340;18.040;2023-04-30T02:28:39;5.10;99.90
12130;DHT22;6128;59.340;18.040;2023-04-30T02:31:07;5.10;99.90
12130;DHT22;6128;59.340;18.040;2023-04-30T02:33:35;5.10;99.90
12130;DHT22;6128;59.340;18.040;2023-04-30T02:36:02;5.10;99.90
12130;DHT22;6128;59.340;18.040;2023-04-30T02:38:30;5.10;99.90
12130;DHT22;6128;59.340;18.040;2023-04-30T02:40:57;5.10;99.90
12130;DHT22;6128;59.340;18.040;2023-04-30T02:43:24;5.00;99.90
12130;DHT22;6128;59.340;18.040;2023-04-30T02:45:51;5.00;99.90
12130;DHT22;6128;59.340;18.040;2023-04-30T02:48:18;5.00;99.90
12130;DHT22;6128;59.340;18.040;2023-04-30T02:50:47;5.00;99.90
12130;DHT22;6128;59.340;18.040;2023-04-30T02:53:14;5.00;99.90
12130;DHT22;6128;59.340;18.040;2023-04-30T02:55:41;4.90;99.90
12130;DHT22;6128;59.340;18.040;2023-04-30T02:58:08;4.90;99.90
12130;DHT22;6128;59.340;18.040;2023-04-30T03:00:35;4.90;99.90
12130;DHT22;6128;59.340;18.040;2023-04-30T03:03:02;4.90;99.90
12130;DHT22;6128;59.340;18.040;2023-04-30T03:05:29;4.80;99.90
12130;DHT22;6128;59.340;18.040;2023-04-30T03:07:58;4.80;99.90
12130;DHT22;6128;59.340;18.040;2023-04-30T03:10:25;4.70;99.90
12130;DHT22;6128;59.340;18.040;2023-04-30T03:12:52;4.60;99.90
12130;DHT22;6128;59.340;18.040;2023-04-30T03:15:19;4.60;99.90
12130;DHT22;6128;59.340;18.040;2023-04-30T03:17:46;4.60;99.90
12130;DHT22;6128;59.340;18.040;2023-04-30T03:20:13;4.50;99.90
12130;DHT22;6128;59.340;18.040;2023-04-30T03:22:40;4.50;99.90
12130;DHT22;6128;59.340;18.040;2023-04-30T03:25:09;4.50;99.90
12130;DHT22;6128;59.340;18.040;2023-04-30T03:27:36;4.50;99.90
12130;DHT22;6128;59.340;18.040;2023-04-30T03:30:04;4.40;99.90
12130;DHT22;6128;59.340;18.040;2023-04-30T03:32:32;4.30;99.90
12130;DHT22;6128;59.340;18.040;2023-04-30T03:34:59;4.30;99.90
12130;DHT22;6128;59.340;18.040;2023-04-30T03:37:28;4.30;99.90
12130;DHT22;6128;59.340;18.040;2023-04-30T03:39:56;4.20;99.90
12130;DHT22;6128;59.340;18.040;2023-04-30T03:42:25;4.10;99.90
12130;DHT22;6128;59.340;18.040;2023-04-30T03:44:52;4.10;99.90
12130;DHT22;6128;59.340;18.040;2023-04-30T03:47:19;4.10;99.90
12130;DHT22;6128;59.340;18.040;2023-04-30T03:49:46;4.10;99.90
12130;DHT22;6128;59.340;18.040;2023-04-30T03:52:19;4.10;99.90
12130;DHT22;6128;59.340;18.040;2023-04-30T03:54:46;4.10;99.90
12130;DHT22;6128;59.340;18.040;2023-04-30T03:57:14;4.10;99.90
12130;DHT22;6128;59.340;18.040;2023-04-30T03:59:42;4.00;99.90
12130;DHT22;6128;59.340;18.040;2023-04-30T04:02:10;4.00;99.90
12130;DHT22;6128;59.340;18.040;2023-04-30T04:04:37;4.00;99.90
12130;DHT22;6128;59.340;18.040;2023-04-30T04:07:04;4.00;99.90
12130;DHT22;6128;59.340;18.040;2023-04-30T04:09:32;4.00;99.90
12130;DHT22;6128;59.340;18.040;2023-04-30T04:11:59;3.90;99.90
12130;DHT22;6128;59.340;18.040;2023-04-30T04:14:27;3.90;99.90
12130;DHT22;6128;59.340;18.040;2023-04-30T04:16:55;3.90;99.90
12130;DHT22;6128;59.340;18.040;2023-04-30T04:19:24;4.00;99.90
12130;DHT22;6128;59.340;18.040;2023-04-30T04:21:52;4.00;99.90
12130;DHT22;6128;59.340;18.040;2023-04-30T04:24:19;4.00;99.90
12130;DHT22;6128;59.340;18.040;2023-04-30T04:26:46;4.10;99.90
12130;DHT22;6128;59.340;18.040;2023-04-30T04:29:13;4.10;99.90
12130;DHT22;6128;59.340;18.040;2023-04-30T04:31:40;4.20;99.90
12130;DHT22;6128;59.340;18.040;2023-04-30T04:34:09;4.40;99.90
12130;DHT22;6128;59.340;18.040;2023-04-30T04:36:36;4.40;99.90
12130;DHT22;6128;59.340;18.040;2023-04-30T04:39:03;4.50;99.90
12130;DHT22;6128;59.340;18.040;2023-04-30T04:41:31;4.50;99.90
12130;DHT22;6128;59.340;18.040;2023-04-30T04:43:59;4.50;99.90
12130;DHT22;6128;59.340;18.040;2023-04-30T04:46:28;4.40;99.90
12130;DHT22;6128;59.340;18.040;2023-04-30T04:48:56;4.40;99.90
12130;DHT22;6128;59.340;18.040;2023-04-30T04:51:24;4.40;99.90
12130;DHT22;6128;59.340;18.040;2023-04-30T04:53:52;4.50;99.90
12130;DHT22;6128;59.340;18.040;2023-04-30T04:56:18;4.60;99.90
12130;DHT22;6128;59.340;18.040;2023-04-30T04:58:46;4.60;99.90
12130;DHT22;6128;59.340;18.040;2023-04-30T05:01:13;4.80;99.90
12130;DHT22;6128;59.340;18.040;2023-04-30T05:03:40;4.90;99.90
12130;DHT22;6128;59.340;18.040;2023-04-30T05:06:07;4.90;99.90
12130;DHT22;6128;59.340;18.040;2023-04-30T05:08:36;5.00;99.90
12130;DHT22;6128;59.340;18.040;2023-04-30T05:11:03;5.10;99.90
12130;DHT22;6128;59.340;18.040;2023-04-30T05:13:30;5.20;99.90
12130;DHT22;6128;59.340;18.040;2023-04-30T05:15:58;5.30;99.90
12130;DHT22;6128;59.340;18.040;2023-04-30T05:18:25;5.40;99.90
12130;DHT22;6128;59.340;18.040;2023-04-30T05:20:52;5.40;99.90
12130;DHT22;6128;59.340;18.040;2023-04-30T05:23:19;5.50;99.90
12130;DHT22;6128;59.340;18.040;2023-04-30T05:25:52;5.50;99.90
12130;DHT22;6128;59.340;18.040;2023-04-30T05:28:19;5.60;99.90
12130;DHT22;6128;59.340;18.040;2023-04-30T05:30:47;5.70;99.90
12130;DHT22;6128;59.340;18.040;2023-04-30T05:33:16;5.70;99.90
12130;DHT22;6128;59.340;18.040;2023-04-30T05:35:43;5.70;99.90
12130;DHT22;6128;59.340;18.040;2023-04-30T05:38:10;5.70;99.90
12130;DHT22;6128;59.340;18.040;2023-04-30T05:40:38;5.70;99.90
12130;DHT22;6128;59.340;18.040;2023-04-30T05:43:06;5.70;99.90
12130;DHT22;6128;59.340;18.040;2023-04-30T05:45:33;5.80;99.90
12130;DHT22;6128;59.340;18.040;2023-04-30T05:48:00;5.90;99.90
12130;DHT22;6128;59.340;18.040;2023-04-30T05:50:27;5.90;99.90
12130;DHT22;6128;59.340;18.040;2023-04-30T05:52:54;5.90;99.90
12130;DHT22;6128;59.340;18.040;2023-04-30T05:55:22;5.90;99.90
12130;DHT22;6128;59.340;18.040;2023-04-30T05:57:49;5.90;99.90
12130;DHT22;6128;59.340;18.040;2023-04-30T06:00:17;5.80;99.90
12130;DHT22;6128;59.340;18.040;2023-04-30T06:02:45;5.90;99.90
12130;DHT22;6128;59.340;18.040;2023-04-30T06:05:12;5.90;99.90
12130;DHT22;6128;59.340;18.040;2023-04-30T06:07:39;5.90;99.90
12130;DHT22;6128;59.340;18.040;2023-04-30T06:10:07;5.90;99.90
12130;DHT22;6128;59.340;18.040;2023-04-30T06:12:34;5.90;99.90
12130;DHT22;6128;59.340;18.040;2023-04-30T06:15:02;5.90;99.90
12130;DHT22;6128;59.340;18.040;2023-04-30T06:17:31;5.80;99.90
12130;DHT22;6128;59.340;18.040;2023-04-30T06:19:58;5.70;99.90
12130;DHT22;6128;59.340;18.040;2023-04-30T06:22:27;5.70;99.90
12130;DHT22;6128;59.340;18.040;2023-04-30T06:24:54;5.70;99.90
12130;DHT22;6128;59.340;18.040;2023-04-30T06:27:22;5.80;99.90
12130;DHT22;6128;59.340;18.040;2023-04-30T06:29:49;5.90;99.90
12130;DHT22;6128;59.340;18.040;2023-04-30T06:32:16;6.10;99.90
12130;DHT22;6128;59.340;18.040;2023-04-30T06:34:45;6.30;99.90
12130;DHT22;6128;59.340;18.040;2023-04-30T06:37:12;6.40;99.90
12130;DHT22;6128;59.340;18.040;2023-04-30T06:39:39;6.60;99.90
12130;DHT22;6128;59.340;18.040;2023-04-30T06:42:06;6.90;99.90
12130;DHT22;6128;59.340;18.040;2023-04-30T06:44:33;7.20;99.90
12130;DHT22;6128;59.340;18.040;2023-04-30T06:47:00;8.10;99.90
12130;DHT22;6128;59.340;18.040;2023-04-30T06:49:27;9.20;99.90
12130;DHT22;6128;59.340;18.040;2023-04-30T06:51:56;10.40;99.90
12130;DHT22;6128;59.340;18.040;2023-04-30T06:54:23;11.20;99.90
12130;DHT22;6128;59.340;18.040;2023-04-30T06:56:51;11.90;99.90
12130;DHT22;6128;59.340;18.040;2023-04-30T06:59:18;12.60;99.90
12130;DHT22;6128;59.340;18.040;2023-04-30T07:01:45;13.20;99.90
12130;DHT22;6128;59.340;18.040;2023-04-30T07:04:12;13.60;99.90
12130;DHT22;6128;59.340;18.040;2023-04-30T07:06:39;13.80;99.90
12130;DHT22;6128;59.340;18.040;2023-04-30T07:09:08;13.60;99.90
12130;DHT22;6128;59.340;18.040;2023-04-30T07:11:36;13.90;99.90
12130;DHT22;6128;59.340;18.040;2023-04-30T07:14:03;14.10;99.90
12130;DHT22;6128;59.340;18.040;2023-04-30T07:16:31;14.00;99.90
12130;DHT22;6128;59.340;18.040;2023-04-30T07:18:58;13.30;99.90
12130;DHT22;6128;59.340;18.040;2023-04-30T07:21:26;12.40;99.90
12130;DHT22;6128;59.340;18.040;2023-04-30T07:23:53;11.80;99.90
12130;DHT22;6128;59.340;18.040;2023-04-30T07:26:21;11.40;99.90
12130;DHT22;6128;59.340;18.040;2023-04-30T07:28:51;10.90;99.90
12130;DHT22;6128;59.340;18.040;2023-04-30T07:31:18;10.40;99.90
12130;DHT22;6128;59.340;18.040;2023-04-30T07:33:45;10.10;99.90
12130;DHT22;6128;59.340;18.040;2023-04-30T07:36:13;9.80;99.90
12130;DHT22;6128;59.340;18.040;2023-04-30T07:38:40;9.50;99.90
12130;DHT22;6128;59.340;18.040;2023-04-30T07:41:07;9.30;99.90
12130;DHT22;6128;59.340;18.040;2023-04-30T07:43:36;9.00;99.90
12130;DHT22;6128;59.340;18.040;2023-04-30T07:46:04;8.90;99.90
12130;DHT22;6128;59.340;18.040;2023-04-30T07:48:31;8.70;99.90
12130;DHT22;6128;59.340;18.040;2023-04-30T07:51:00;8.70;99.90
12130;DHT22;6128;59.340;18.040;2023-04-30T07:53:29;8.80;99.90
12130;DHT22;6128;59.340;18.040;2023-04-30T07:55:56;9.20;99.90
12130;DHT22;6128;59.340;18.040;2023-04-30T07:58:23;9.70;99.90
12130;DHT22;6128;59.340;18.040;2023-04-30T08:00:52;9.90;99.90
12130;DHT22;6128;59.340;18.040;2023-04-30T08:03:19;9.90;99.90
12130;DHT22;6128;59.340;18.040;2023-04-30T08:05:46;9.80;99.90
12130;DHT22;6128;59.340;18.040;2023-04-30T08:08:13;9.70;99.90
12130;DHT22;6128;59.340;18.040;2023-04-30T08:10:40;9.70;99.90
12130;DHT22;6128;59.340;18.040;2023-04-30T08:13:07;9.50;99.90
12130;DHT22;6128;59.340;18.040;2023-04-30T08:15:35;9.30;99.90
12130;DHT22;6128;59.340;18.040;2023-04-30T08:18:03;9.30;99.90
12130;DHT22;6128;59.340;18.040;2023-04-30T08:20:31;9.50;99.90
12130;DHT22;6128;59.340;18.040;2023-04-30T08:22:58;9.90;99.90
12130;DHT22;6128;59.340;18.040;2023-04-30T08:25:26;10.50;99.90
12130;DHT22;6128;59.340;18.040;2023-04-30T08:27:53;10.90;99.90
12130;DHT22;6128;59.340;18.040;2023-04-30T08:30:20;11.50;99.90
12130;DHT22;6128;59.340;18.040;2023-04-30T08:32:48;11.60;99.90
12130;DHT22;6128;59.340;18.040;2023-04-30T08:35:16;11.60;99.90
12130;DHT22;6128;59.340;18.040;2023-04-30T08:37:44;11.40;99.90
12130;DHT22;6128;59.340;18.040;2023-04-30T08:40:11;11.20;99.90
12130;DHT22;6128;59.340;18.040;2023-04-30T08:42:43;11.10;99.90
12130;DHT22;6128;59.340;18.040;2023-04-30T08:45:11;11.40;99.90
12130;DHT22;6128;59.340;18.040;2023-04-30T08:47:39;11.60;99.90
12130;DHT22;6128;59.340;18.040;2023-04-30T08:50:07;11.80;99.90
12130;DHT22;6128;59.340;18.040;2023-04-30T08:52:36;12.10;99.90
12130;DHT22;6128;59.340;18.040;2023-04-30T08:55:07;12.10;99.90
12130;DHT22;6128;59.340;18.040;2023-04-30T08:57:36;12.00;99.90
12130;DHT22;6128;59.340;18.040;2023-04-30T09:00:04;12.00;99.90
12130;DHT22;6128;59.340;18.040;2023-04-30T09:02:32;12.20;99.90
12130;DHT22;6128;59.340;18.040;2023-04-30T09:04:59;12.30;99.90
12130;DHT22;6128;59.340;18.040;2023-04-30T09:07:26;13.10;99.90
12130;DHT22;6128;59.340;18.040;2023-04-30T09:09:58;14.00;99.90
12130;DHT22;6128;59.340;18.040;2023-04-30T09:12:26;14.80;99.90
12130;DHT22;6128;59.340;18.040;2023-04-30T09:15:00;15.40;99.90
12130;DHT22;6128;59.340;18.040;2023-04-30T09:17:28;15.90;99.90
12130;DHT22;6128;59.340;18.040;2023-04-30T09:20:05;15.80;99.90
12130;DHT22;6128;59.340;18.040;2023-04-30T09:22:34;15.20;99.90
12130;DHT22;6128;59.340;18.040;2023-04-30T09:25:05;14.30;99.90
12130;DHT22;6128;59.340;18.040;2023-04-30T09:27:32;13.60;99.90
12130;DHT22;6128;59.340;18.040;2023-04-30T09:29:59;13.00;99.90
12130;DHT22;6128;59.340;18.040;2023-04-30T09:32:26;12.60;99.90
12130;DHT22;6128;59.340;18.040;2023-04-30T09:34:54;12.20;99.90
12130;DHT22;6128;59.340;18.040;2023-04-30T09:37:22;11.70;99.90
12130;DHT22;6128;59.340;18.040;2023-04-30T09:40:00;11.40;99.90
12130;DHT22;6128;59.340;18.040;2023-04-30T09:42:30;11.00;99.90
12130;DHT22;6128;59.340;18.040;2023-04-30T09:44:57;10.80;99.80
12130;DHT22;6128;59.340;18.040;2023-04-30T09:47:29;10.80;99.80
12130;DHT22;6128;59.340;18.040;2023-04-30T09:49:59;10.70;99.70
12130;DHT22;6128;59.340;18.040;2023-04-30T09:52:26;10.70;99.60
12130;DHT22;6128;59.340;18.040;2023-04-30T09:54:55;10.80;99.60
12130;DHT22;6128;59.340;18.040;2023-04-30T09:57:23;11.00;99.50
12130;DHT22;6128;59.340;18.040;2023-04-30T09:59:52;11.00;99.40
12130;DHT22;6128;59.340;18.040;2023-04-30T10:02:23;11.00;99.30
12130;DHT22;6128;59.340;18.040;2023-04-30T10:04:55;11.10;99.20
12130;DHT22;6128;59.340;18.040;2023-04-30T10:07:24;11.10;99.10
12130;DHT22;6128;59.340;18.040;2023-04-30T10:09:58;11.20;99.00
12130;DHT22;6128;59.340;18.040;2023-04-30T10:12:33;11.10;98.90
12130;DHT22;6128;59.340;18.040;2023-04-30T10:15:08;11.00;98.80
12130;DHT22;6128;59.340;18.040;2023-04-30T10:17:37;10.90;98.60
12130;DHT22;6128;59.340;18.040;2023-04-30T10:20:08;10.90;98.30
12130;DHT22;6128;59.340;18.040;2023-04-30T10:22:36;10.80;98.20
12130;DHT22;6128;59.340;18.040;2023-04-30T10:25:06;10.90;97.90
12130;DHT22;6128;59.340;18.040;2023-04-30T10:27:38;11.00;97.60
12130;DHT22;6128;59.340;18.040;2023-04-30T10:30:09;11.00;97.40
12130;DHT22;6128;59.340;18.040;2023-04-30T10:32:43;11.10;97.30
12130;DHT22;6128;59.340;18.040;2023-04-30T10:35:16;11.30;97.10
12130;DHT22;6128;59.340;18.040;2023-04-30T10:37:47;11.40;97.00
12130;DHT22;6128;59.340;18.040;2023-04-30T10:40:18;11.40;97.10
12130;DHT22;6128;59.340;18.040;2023-04-30T10:42:46;11.50;97.30
12130;DHT22;6128;59.340;18.040;2023-04-30T10:45:16;11.50;97.50
12130;DHT22;6128;59.340;18.040;2023-04-30T10:47:45;11.50;97.50
12130;DHT22;6128;59.340;18.040;2023-04-30T10:50:12;11.50;97.80
12130;DHT22;6128;59.340;18.040;2023-04-30T10:52:40;11.60;97.70
12130;DHT22;6128;59.340;18.040;2023-04-30T10:55:08;11.50;97.40
12130;DHT22;6128;59.340;18.040;2023-04-30T10:57:42;11.30;97.10
12130;DHT22;6128;59.340;18.040;2023-04-30T11:00:21;11.40;96.80
12130;DHT22;6128;59.340;18.040;2023-04-30T11:02:55;11.40;96.60
12130;DHT22;6128;59.340;18.040;2023-04-30T11:05:34;11.40;96.30
12130;DHT22;6128;59.340;18.040;2023-04-30T11:08:02;11.40;96.00
12130;DHT22;6128;59.340;18.040;2023-04-30T11:10:32;11.40;95.90
12130;DHT22;6128;59.340;18.040;2023-04-30T11:13:03;11.60;95.80
12130;DHT22;6128;59.340;18.040;2023-04-30T11:15:34;11.80;95.70
12130;DHT22;6128;59.340;18.040;2023-04-30T11:18:02;11.90;95.50
12130;DHT22;6128;59.340;18.040;2023-04-30T11:20:32;11.90;95.40
12130;DHT22;6128;59.340;18.040;2023-04-30T11:23:12;12.00;95.40
12130;DHT22;6128;59.340;18.040;2023-04-30T11:25:41;12.00;95.50
12130;DHT22;6128;59.340;18.040;2023-04-30T11:28:13;12.00;95.40
12130;DHT22;6128;59.340;18.040;2023-04-30T11:30:51;12.10;95.30
12130;DHT22;6128;59.340;18.040;2023-04-30T11:33:19;12.10;95.10
12130;DHT22;6128;59.340;18.040;2023-04-30T11:35:47;12.00;94.90
12130;DHT22;6128;59.340;18.040;2023-04-30T11:38:21;11.90;94.60
12130;DHT22;6128;59.340;18.040;2023-04-30T11:40:55;11.70;94.30
12130;DHT22;6128;59.340;18.040;2023-04-30T11:43:23;11.50;94.20
12130;DHT22;6128;59.340;18.040;2023-04-30T11:46:06;11.30;94.00
12130;DHT22;6128;59.340;18.040;2023-04-30T11:48:34;11.10;93.80
12130;DHT22;6128;59.340;18.040;2023-04-30T11:51:03;11.00;93.80
12130;DHT22;6128;59.340;18.040;2023-04-30T11:53:31;11.10;94.00
12130;DHT22;6128;59.340;18.040;2023-04-30T11:56:02;11.30;94.10
12130;DHT22;6128;59.340;18.040;2023-04-30T11:58:35;11.40;94.20
12130;DHT22;6128;59.340;18.040;2023-04-30T12:01:06;11.50;93.90
12130;DHT22;6128;59.340;18.040;2023-04-30T12:03:43;11.50;93.90
12130;DHT22;6128;59.340;18.040;2023-04-30T12:06:23;11.50;93.70
12130;DHT22;6128;59.340;18.040;2023-04-30T12:08:52;11.60;93.40
12130;DHT22;6128;59.340;18.040;2023-04-30T12:11:20;11.80;93.10
12130;DHT22;6128;59.340;18.040;2023-04-30T12:13:51;11.90;92.90
12130;DHT22;6128;59.340;18.040;2023-04-30T12:16:20;12.00;93.00
12130;DHT22;6128;59.340;18.040;2023-04-30T12:18:47;12.10;92.80
12130;DHT22;6128;59.340;18.040;2023-04-30T12:21:14;12.20;92.70
12130;DHT22;6128;59.340;18.040;2023-04-30T12:23:42;12.30;92.50
12130;DHT22;6128;59.340;18.040;2023-04-30T12:26:09;12.40;92.50
12130;DHT22;6128;59.340;18.040;2023-04-30T12:28:37;12.50;92.40
12130;DHT22;6128;59.340;18.040;2023-04-30T12:31:04;12.50;92.30
12130;DHT22;6128;59.340;18.040;2023-04-30T12:33:33;12.40;92.20
12130;DHT22;6128;59.340;18.040;2023-04-30T12:36:02;12.40;92.10
12130;DHT22;6128;59.340;18.040;2023-04-30T12:38:29;12.50;92.00
12130;DHT22;6128;59.340;18.040;2023-04-30T12:40:56;12.60;91.70
12130;DHT22;6128;59.340;18.040;2023-04-30T12:43:23;12.70;91.50
12130;DHT22;6128;59.340;18.040;2023-04-30T12:45:51;12.70;91.10
12130;DHT22;6128;59.340;18.040;2023-04-30T12:48:21;12.70;90.90
12130;DHT22;6128;59.340;18.040;2023-04-30T12:50:54;12.80;90.70
12130;DHT22;6128;59.340;18.040;2023-04-30T12:53:21;12.90;90.50
12130;DHT22;6128;59.340;18.040;2023-04-30T12:56:09;13.00;90.40
12130;DHT22;6128;59.340;18.040;2023-04-30T12:58:36;13.10;85.30
12130;DHT22;6128;59.340;18.040;2023-04-30T13:01:04;12.90;85.80
12130;DHT22;6128;59.340;18.040;2023-04-30T13:03:31;12.80;85.90
12130;DHT22;6128;59.340;18.040;2023-04-30T13:06:00;12.80;86.20
12130;DHT22;6128;59.340;18.040;2023-04-30T13:08:29;12.70;86.30
12130;DHT22;6128;59.340;18.040;2023-04-30T13:10:59;12.70;86.20
12130;DHT22;6128;59.340;18.040;2023-04-30T13:13:26;12.60;85.60
12130;DHT22;6128;59.340;18.040;2023-04-30T13:15:53;12.50;84.70
12130;DHT22;6128;59.340;18.040;2023-04-30T13:18:20;12.50;84.50
12130;DHT22;6128;59.340;18.040;2023-04-30T13:20:47;12.60;84.60
12130;DHT22;6128;59.340;18.040;2023-04-30T13:23:16;12.60;84.70
12130;DHT22;6128;59.340;18.040;2023-04-30T13:25:43;12.60;84.70
12130;DHT22;6128;59.340;18.040;2023-04-30T13:28:11;12.70;84.10
12130;DHT22;6128;59.340;18.040;2023-04-30T13:30:38;12.80;83.70
12130;DHT22;6128;59.340;18.040;2023-04-30T13:33:05;12.80;83.30
12130;DHT22;6128;59.340;18.040;2023-04-30T13:35:32;12.80;83.00
12130;DHT22;6128;59.340;18.040;2023-04-30T13:37:59;12.80;82.90
12130;DHT22;6128;59.340;18.040;2023-04-30T13:40:28;12.80;82.50
12130;DHT22;6128;59.340;18.040;2023-04-30T13:42:55;12.90;82.50
12130;DHT22;6128;59.340;18.040;2023-04-30T13:45:22;12.90;82.10
12130;DHT22;6128;59.340;18.040;2023-04-30T13:47:49;12.90;82.00
12130;DHT22;6128;59.340;18.040;2023-04-30T13:50:17;12.90;80.90
12130;DHT22;6128;59.340;18.040;2023-04-30T13:52:44;12.80;80.20
12130;DHT22;6128;59.340;18.040;2023-04-30T13:55:11;12.70;79.70
12130;DHT22;6128;59.340;18.040;2023-04-30T13:57:39;12.80;79.20
12130;DHT22;6128;59.340;18.040;2023-04-30T14:00:07;12.80;78.80
12130;DHT22;6128;59.340;18.040;2023-04-30T14:02:35;12.80;78.60
12130;DHT22;6128;59.340;18.040;2023-04-30T14:05:02;12.70;78.20
12130;DHT22;6128;59.340;18.040;2023-04-30T14:07:31;12.60;78.10
12130;DHT22;6128;59.340;18.040;2023-04-30T14:09:59;12.60;78.10
12130;DHT22;6128;59.340;18.040;2023-04-30T14:12:26;12.60;78.10
12130;DHT22;6128;59.340;18.040;2023-04-30T14:14:56;12.60;77.90
12130;DHT22;6128;59.340;18.040;2023-04-30T14:17:24;12.60;77.90
12130;DHT22;6128;59.340;18.040;2023-04-30T14:19:52;12.60;78.00
12130;DHT22;6128;59.340;18.040;2023-04-30T14:22:19;12.60;77.80
12130;DHT22;6128;59.340;18.040;2023-04-30T14:24:46;12.70;77.70
12130;DHT22;6128;59.340;18.040;2023-04-30T14:27:13;12.70;77.40
12130;DHT22;6128;59.340;18.040;2023-04-30T14:29:40;12.90;77.40
12130;DHT22;6128;59.340;18.040;2023-04-30T14:32:09;13.00;77.40
12130;DHT22;6128;59.340;18.040;2023-04-30T14:34:36;13.10;77.20
12130;DHT22;6128;59.340;18.040;2023-04-30T14:37:03;13.10;77.30
12130;DHT22;6128;59.340;18.040;2023-04-30T14:39:30;13.10;77.30
12130;DHT22;6128;59.340;18.040;2023-04-30T14:42:00;13.10;77.50
12130;DHT22;6128;59.340;18.040;2023-04-30T14:44:27;13.10;77.20
12130;DHT22;6128;59.340;18.040;2023-04-30T14:46:55;13.10;77.10
12130;DHT22;6128;59.340;18.040;2023-04-30T14:49:24;13.20;76.90
12130;DHT22;6128;59.340;18.040;2023-04-30T14:51:51;13.00;76.20
12130;DHT22;6128;59.340;18.040;2023-04-30T14:54:21;13.00;75.80
12130;DHT22;6128;59.340;18.040;2023-04-30T14:56:48;13.00;76.00
12130;DHT22;6128;59.340;18.040;2023-04-30T14:59:15;12.90;74.90
12130;DHT22;6128;59.340;18.040;2023-04-30T15:01:43;12.80;74.90
12130;DHT22;6128;59.340;18.040;2023-04-30T15:04:10;12.70;74.90
12130;DHT22;6128;59.340;18.040;2023-04-30T15:06:38;12.60;74.60
12130;DHT22;6128;59.340;18.040;2023-04-30T15:09:06;12.50;74.10
12130;DHT22;6128;59.340;18.040;2023-04-30T15:11:39;12.50;73.90
12130;DHT22;6128;59.340;18.040;2023-04-30T15:14:06;12.50;73.20
12130;DHT22;6128;59.340;18.040;2023-04-30T15:16:36;12.50;73.20
12130;DHT22;6128;59.340;18.040;2023-04-30T15:19:04;12.50;73.10
12130;DHT22;6128;59.340;18.040;2023-04-30T15:21:31;12.50;73.20
12130;DHT22;6128;59.340;18.040;2023-04-30T15:24:01;12.50;73.10
12130;DHT22;6128;59.340;18.040;2023-04-30T15:26:28;12.50;73.00
12130;DHT22;6128;59.340;18.040;2023-04-30T15:28:56;12.50;73.20
12130;DHT22;6128;59.340;18.040;2023-04-30T15:31:23;12.50;73.30
12130;DHT22;6128;59.340;18.040;2023-04-30T15:33:52;12.60;73.40
12130;DHT22;6128;59.340;18.040;2023-04-30T15:36:20;12.60;73.50
12130;DHT22;6128;59.340;18.040;2023-04-30T15:38:48;12.60;73.40
12130;DHT22;6128;59.340;18.040;2023-04-30T15:41:16;12.60;73.40
12130;DHT22;6128;59.340;18.040;2023-04-30T15:43:46;12.70;73.30
12130;DHT22;6128;59.340;18.040;2023-04-30T15:46:13;12.70;73.20